sensor_id;sensor_type;location;lat;lon;timestamp;temperature;humidity
10572;DHT22;5334;48.928;12.704;2023-03-01T00:01:22;1.20;99.90
10572;DHT22;5334;48.928;12.704;2023-03-01T00:03:48;1.20;99.90
10572;DHT22;5334;48.928;12.704;2023-03-01T00:06:14;1.20;99.90
10572;DHT22;5334;48.928;12.704;2023-03-01T00:08:40;1.20;99.90
10572;DHT22;5334;48.928;12.704;2023-03-01T00:11:21;1.20;99.90
10572;DHT22;5334;48.928;12.704;2023-03-01T00:13:49;1.20;99.90
10572;DHT22;5334;48.928;12.704;2023-03-01T00:16:20;1.20;99.90
10572;DHT22;5334;48.928;12.704;2023-03-01T00:18:47;1.20;99.90
10572;DHT22;5334;48.928;12.704;2023-03-01T00:21:13;1.10;99.90
10572;DHT22;5334;48.928;12.704;2023-03-01T00:23:39;1.10;99.90
10572;DHT22;5334;48.928;12.704;2023-03-01T00:26:09;1.10;99.90
10572;DHT22;5334;48.928;12.704;2023-03-01T00:28:35;1.10;99.90
10572;DHT22;5334;48.928;12.704;2023-03-01T00:31:11;1.10;99.90
10572;DHT22;5334;48.928;12.704;2023-03-01T00:33:37;1.10;99.90
10572;DHT22;5334;48.928;12.704;2023-03-01T00:36:03;1.10;99.90
10572;DHT22;5334;48.928;12.704;2023-03-01T00:38:29;1.10;99.90
10572;DHT22;5334;48.928;12.704;2023-03-01T00:40:55;1.00;99.90
10572;DHT22;5334;48.928;12.704;2023-03-01T00:43:21;0.90;99.90
10572;DHT22;5334;48.928;12.704;2023-03-01T00:45:47;0.90;99.90
10572;DHT22;5334;48.928;12.704;2023-03-01T00:48:12;0.80;99.90
10572;DHT22;5334;48.928;12.704;2023-03-01T00:50:38;0.80;99.90
10572;DHT22;5334;48.928;12.704;2023-03-01T00:53:04;0.80;99.90
10572;DHT22;5334;48.928;12.704;2023-03-01T00:55:30;0.80;99.90
10572;DHT22;5334;48.928;12.704;2023-03-01T00:57:56;0.80;99.90
10572;DHT22;5334;48.928;12.704;2023-03-01T01:00:21;0.80;99.90
10572;DHT22;5334;48.928;12.704;2023-03-01T01:02:47;0.80;99.90
10572;DHT22;5334;48.928;12.704;2023-03-01T01:05:14;0.80;99.90
10572;DHT22;5334;48.928;12.704;2023-03-01T01:07:40;0.80;99.90
10572;DHT22;5334;48.928;12.704;2023-03-01T01:10:06;0.80;99.90
10572;DHT22;5334;48.928;12.704;2023-03-01T01:12:32;0.70;99.90
10572;DHT22;5334;48.928;12.704;2023-03-01T01:14:58;0.70;99.90
10572;DHT22;5334;48.928;12.704;2023-03-01T01:17:24;0.70;99.90
10572;DHT22;5334;48.928;12.704;2023-03-01T01:19:50;0.70;99.90
10572;DHT22;5334;48.928;12.704;2023-03-01T01:22:15;0.60;99.90
10572;DHT22;5334;48.928;12.704;2023-03-01T01:24:41;0.60;99.90
10572;DHT22;5334;48.928;12.704;2023-03-01T01:27:07;0.60;99.90
10572;DHT22;5334;48.928;12.704;2023-03-01T01:29:33;0.60;99.90
10572;DHT22;5334;48.928;12.704;2023-03-01T01:31:58;0.60;99.90
10572;DHT22;5334;48.928;12.704;2023-03-01T01:34:24;0.60;99.90
10572;DHT22;5334;48.928;12.704;2023-03-01T01:36:53;0.60;99.90
10572;DHT22;5334;48.928;12.704;2023-03-01T01:39:20;0.60;99.90
10572;DHT22;5334;48.928;12.704;2023-03-01T01:41:47;0.60;99.90
10572;DHT22;5334;48.928;12.704;2023-03-01T01:44:24;0.60;99.90
10572;DHT22;5334;48.928;12.704;2023-03-01T01:49:27;0.60;99.90
10572;DHT22;5334;48.928;12.704;2023-03-01T01:52:02;0.60;99.90
10572;DHT22;5334;48.928;12.704;2023-03-01T01:57:14;0.50;99.90
10572;DHT22;5334;48.928;12.704;2023-03-01T01:59:43;0.50;99.90
10572;DHT22;5334;48.928;12.704;2023-03-01T02:02:12;0.40;99.90
10572;DHT22;5334;48.928;12.704;2023-03-01T02:04:38;0.40;99.90
10572;DHT22;5334;48.928;12.704;2023-03-01T02:09:36;0.40;99.90
10572;DHT22;5334;48.928;12.704;2023-03-01T02:12:02;0.40;99.90
10572;DHT22;5334;48.928;12.704;2023-03-01T02:14:29;0.40;99.90
10572;DHT22;5334;48.928;12.704;2023-03-01T02:16:55;0.40;99.90
10572;DHT22;5334;48.928;12.704;2023-03-01T02:19:36;0.30;99.90
10572;DHT22;5334;48.928;12.704;2023-03-01T02:22:22;0.30;99.90
10572;DHT22;5334;48.928;12.704;2023-03-01T02:30:28;0.30;99.90
10572;DHT22;5334;48.928;12.704;2023-03-01T02:32:56;0.30;99.90
10572;DHT22;5334;48.928;12.704;2023-03-01T02:35:35;0.30;99.90
10572;DHT22;5334;48.928;12.704;2023-03-01T02:38:03;0.20;99.90
10572;DHT22;5334;48.928;12.704;2023-03-01T02:40:33;0.20;99.90
10572;DHT22;5334;48.928;12.704;2023-03-01T02:42:59;0.20;99.90
10572;DHT22;5334;48.928;12.704;2023-03-01T02:45:26;0.20;99.90
10572;DHT22;5334;48.928;12.704;2023-03-01T02:47:56;0.20;99.90
10572;DHT22;5334;48.928;12.704;2023-03-01T02:53:52;0.20;99.90
10572;DHT22;5334;48.928;12.704;2023-03-01T02:55:54;0.10;99.90
10572;DHT22;5334;48.928;12.704;2023-03-01T02:58:20;0.10;99.90
10572;DHT22;5334;48.928;12.704;2023-03-01T03:00:46;0.10;99.90
10572;DHT22;5334;48.928;12.704;2023-03-01T03:03:16;0.10;99.90
10572;DHT22;5334;48.928;12.704;2023-03-01T03:05:42;0.00;99.90
10572;DHT22;5334;48.928;12.704;2023-03-01T03:08:09;0.00;99.90
10572;DHT22;5334;48.928;12.704;2023-03-01T03:10:40;-0.10;99.90
10572;DHT22;5334;48.928;12.704;2023-03-01T03:13:11;-0.10;99.90
10572;DHT22;5334;48.928;12.704;2023-03-01T03:15:37;-0.10;99.90
10572;DHT22;5334;48.928;12.704;2023-03-01T03:18:07;-0.10;99.90
10572;DHT22;5334;48.928;12.704;2023-03-01T03:20:33;-0.20;99.90
10572;DHT22;5334;48.928;12.704;2023-03-01T03:22:59;-0.20;99.90
10572;DHT22;5334;48.928;12.704;2023-03-01T03:25:27;-0.20;99.90
10572;DHT22;5334;48.928;12.704;2023-03-01T03:27:54;-0.20;99.90
10572;DHT22;5334;48.928;12.704;2023-03-01T03:30:27;-0.30;99.90
10572;DHT22;5334;48.928;12.704;2023-03-01T03:32:54;-0.30;99.90
10572;DHT22;5334;48.928;12.704;2023-03-01T03:35:31;-0.30;99.90
10572;DHT22;5334;48.928;12.704;2023-03-01T03:38:01;-0.40;99.90
10572;DHT22;5334;48.928;12.704;2023-03-01T03:40:29;-0.40;99.90
10572;DHT22;5334;48.928;12.704;2023-03-01T03:42:55;-0.50;99.90
10572;DHT22;5334;48.928;12.704;2023-03-01T03:45:20;-0.50;99.90
10572;DHT22;5334;48.928;12.704;2023-03-01T03:47:48;-0.50;99.90
10572;DHT22;5334;48.928;12.704;2023-03-01T03:50:15;-0.60;99.90
10572;DHT22;5334;48.928;12.704;2023-03-01T03:52:41;-0.60;99.90
10572;DHT22;5334;48.928;12.704;2023-03-01T03:55:08;-0.60;99.90
10572;DHT22;5334;48.928;12.704;2023-03-01T03:57:40;-0.60;99.90
10572;DHT22;5334;48.928;12.704;2023-03-01T04:00:09;-0.60;99.90
10572;DHT22;5334;48.928;12.704;2023-03-01T04:02:44;-0.70;99.90
10572;DHT22;5334;48.928;12.704;2023-03-01T04:05:12;-0.70;99.90
10572;DHT22;5334;48.928;12.704;2023-03-01T04:07:40;-0.70;99.90
10572;DHT22;5334;48.928;12.704;2023-03-01T04:10:09;-0.70;99.90
10572;DHT22;5334;48.928;12.704;2023-03-01T04:12:35;-0.70;99.90
10572;DHT22;5334;48.928;12.704;2023-03-01T04:15:06;-0.80;99.90
10572;DHT22;5334;48.928;12.704;2023-03-01T04:17:46;-0.80;99.90
10572;DHT22;5334;48.928;12.704;2023-03-01T04:20:20;-0.80;99.90
10572;DHT22;5334;48.928;12.704;2023-03-01T04:23:01;-0.80;99.90
10572;DHT22;5334;48.928;12.704;2023-03-01T04:25:37;-0.80;99.90
10572;DHT22;5334;48.928;12.704;2023-03-01T04:28:03;-0.80;99.90
10572;DHT22;5334;48.928;12.704;2023-03-01T04:30:29;-0.80;99.90
10572;DHT22;5334;48.928;12.704;2023-03-01T04:32:54;-0.80;99.90
10572;DHT22;5334;48.928;12.704;2023-03-01T04:35:20;-0.80;99.90
10572;DHT22;5334;48.928;12.704;2023-03-01T04:40:12;-0.90;99.90
10572;DHT22;5334;48.928;12.704;2023-03-01T04:42:41;-0.90;99.90
10572;DHT22;5334;48.928;12.704;2023-03-01T04:45:08;-1.00;99.90
10572;DHT22;5334;48.928;12.704;2023-03-01T04:47:42;-1.00;99.90
10572;DHT22;5334;48.928;12.704;2023-03-01T04:50:10;-1.10;99.90
10572;DHT22;5334;48.928;12.704;2023-03-01T04:52:36;-1.10;99.90
10572;DHT22;5334;48.928;12.704;2023-03-01T04:57:29;-1.10;99.90
10572;DHT22;5334;48.928;12.704;2023-03-01T04:59:55;-1.10;99.90
10572;DHT22;5334;48.928;12.704;2023-03-01T05:02:21;-1.10;99.90
10572;DHT22;5334;48.928;12.704;2023-03-01T05:07:12;-1.20;99.90
10572;DHT22;5334;48.928;12.704;2023-03-01T05:09:47;-1.20;99.90
10572;DHT22;5334;48.928;12.704;2023-03-01T05:12:14;-1.20;99.90
10572;DHT22;5334;48.928;12.704;2023-03-01T05:17:07;-1.20;99.90
10572;DHT22;5334;48.928;12.704;2023-03-01T05:19:34;-1.20;99.90
10572;DHT22;5334;48.928;12.704;2023-03-01T05:21:59;-1.30;99.90
10572;DHT22;5334;48.928;12.704;2023-03-01T05:24:33;-1.30;99.90
10572;DHT22;5334;48.928;12.704;2023-03-01T05:27:00;-1.40;99.90
10572;DHT22;5334;48.928;12.704;2023-03-01T05:29:28;-1.40;99.90
10572;DHT22;5334;48.928;12.704;2023-03-01T05:31:55;-1.40;99.90
10572;DHT22;5334;48.928;12.704;2023-03-01T05:34:33;-1.40;99.90
10572;DHT22;5334;48.928;12.704;2023-03-01T05:36:59;-1.40;99.90
10572;DHT22;5334;48.928;12.704;2023-03-01T05:41:56;-1.40;99.90
10572;DHT22;5334;48.928;12.704;2023-03-01T05:44:23;-1.40;99.90
10572;DHT22;5334;48.928;12.704;2023-03-01T05:49:15;-1.40;99.90
10572;DHT22;5334;48.928;12.704;2023-03-01T05:51:42;-1.30;99.90
10572;DHT22;5334;48.928;12.704;2023-03-01T05:54:09;-1.30;99.90
10572;DHT22;5334;48.928;12.704;2023-03-01T05:56:36;-1.40;99.90
10572;DHT22;5334;48.928;12.704;2023-03-01T05:59:04;-1.50;99.90
10572;DHT22;5334;48.928;12.704;2023-03-01T06:01:34;-1.40;99.90
10572;DHT22;5334;48.928;12.704;2023-03-01T06:04:00;-1.40;99.90
10572;DHT22;5334;48.928;12.704;2023-03-01T06:06:26;-1.30;99.90
10572;DHT22;5334;48.928;12.704;2023-03-01T06:08:52;-1.30;99.90
10572;DHT22;5334;48.928;12.704;2023-03-01T06:11:19;-1.30;99.90
10572;DHT22;5334;48.928;12.704;2023-03-01T06:13:45;-1.30;99.90
10572;DHT22;5334;48.928;12.704;2023-03-01T06:16:12;-1.10;99.90
10572;DHT22;5334;48.928;12.704;2023-03-01T06:18:38;-1.00;99.90
10572;DHT22;5334;48.928;12.704;2023-03-01T06:21:05;-0.90;99.90
10572;DHT22;5334;48.928;12.704;2023-03-01T06:23:31;-0.70;99.90
10572;DHT22;5334;48.928;12.704;2023-03-01T06:25:57;-0.60;99.90
10572;DHT22;5334;48.928;12.704;2023-03-01T06:28:23;-0.50;99.90
10572;DHT22;5334;48.928;12.704;2023-03-01T06:30:52;-0.30;99.90
10572;DHT22;5334;48.928;12.704;2023-03-01T06:33:19;-0.10;99.90
10572;DHT22;5334;48.928;12.704;2023-03-01T06:35:49;0.10;99.90
10572;DHT22;5334;48.928;12.704;2023-03-01T06:38:15;0.30;99.90
10572;DHT22;5334;48.928;12.704;2023-03-01T06:40:43;0.50;99.90
10572;DHT22;5334;48.928;12.704;2023-03-01T06:43:09;0.70;99.90
10572;DHT22;5334;48.928;12.704;2023-03-01T06:45:35;0.90;99.90
10572;DHT22;5334;48.928;12.704;2023-03-01T06:48:07;1.10;99.90
10572;DHT22;5334;48.928;12.704;2023-03-01T06:50:34;1.30;99.90
10572;DHT22;5334;48.928;12.704;2023-03-01T06:53:00;1.40;99.90
10572;DHT22;5334;48.928;12.704;2023-03-01T06:55:26;1.60;99.90
10572;DHT22;5334;48.928;12.704;2023-03-01T06:57:56;1.80;99.90
10572;DHT22;5334;48.928;12.704;2023-03-01T07:00:22;2.00;99.90
10572;DHT22;5334;48.928;12.704;2023-03-01T07:02:48;2.10;99.90
10572;DHT22;5334;48.928;12.704;2023-03-01T07:05:14;2.30;99.90
10572;DHT22;5334;48.928;12.704;2023-03-01T07:07:40;2.40;99.90
10572;DHT22;5334;48.928;12.704;2023-03-01T07:10:06;2.70;99.90
10572;DHT22;5334;48.928;12.704;2023-03-01T07:12:32;2.90;99.90
10572;DHT22;5334;48.928;12.704;2023-03-01T07:14:58;3.10;99.90
10572;DHT22;5334;48.928;12.704;2023-03-01T07:17:24;3.10;99.90
10572;DHT22;5334;48.928;12.704;2023-03-01T07:19:50;3.30;99.90
10572;DHT22;5334;48.928;12.704;2023-03-01T07:22:16;3.40;99.90
10572;DHT22;5334;48.928;12.704;2023-03-01T07:24:42;3.70;99.90
10572;DHT22;5334;48.928;12.704;2023-03-01T07:27:08;3.80;99.90
10572;DHT22;5334;48.928;12.704;2023-03-01T07:29:34;4.00;99.90
10572;DHT22;5334;48.928;12.704;2023-03-01T07:32:02;4.20;99.90
10572;DHT22;5334;48.928;12.704;2023-03-01T07:34:28;4.30;99.90
10572;DHT22;5334;48.928;12.704;2023-03-01T07:36:54;4.50;99.90
10572;DHT22;5334;48.928;12.704;2023-03-01T07:39:20;4.70;99.90
10572;DHT22;5334;48.928;12.704;2023-03-01T07:41:48;4.80;99.90
10572;DHT22;5334;48.928;12.704;2023-03-01T07:44:14;5.00;99.90
10572;DHT22;5334;48.928;12.704;2023-03-01T07:46:41;5.20;99.90
10572;DHT22;5334;48.928;12.704;2023-03-01T07:49:06;5.50;99.90
10572;DHT22;5334;48.928;12.704;2023-03-01T07:51:32;5.70;99.90
10572;DHT22;5334;48.928;12.704;2023-03-01T07:53:58;5.80;99.90
10572;DHT22;5334;48.928;12.704;2023-03-01T07:56:24;5.80;99.90
10572;DHT22;5334;48.928;12.704;2023-03-01T07:58:49;5.90;99.90
10572;DHT22;5334;48.928;12.704;2023-03-01T08:03:43;6.20;99.90
10572;DHT22;5334;48.928;12.704;2023-03-01T08:08:36;6.50;99.90
10572;DHT22;5334;48.928;12.704;2023-03-01T08:11:04;6.80;99.90
10572;DHT22;5334;48.928;12.704;2023-03-01T08:16:04;7.10;99.50
10572;DHT22;5334;48.928;12.704;2023-03-01T08:18:30;7.30;99.90
10572;DHT22;5334;48.928;12.704;2023-03-01T08:20:55;7.40;99.20
10572;DHT22;5334;48.928;12.704;2023-03-01T08:23:21;7.40;98.60
10572;DHT22;5334;48.928;12.704;2023-03-01T08:25:47;7.50;98.60
10572;DHT22;5334;48.928;12.704;2023-03-01T08:28:12;7.60;98.80
10572;DHT22;5334;48.928;12.704;2023-03-01T08:30:38;7.50;99.00
10572;DHT22;5334;48.928;12.704;2023-03-01T08:33:04;7.60;97.50
10572;DHT22;5334;48.928;12.704;2023-03-01T08:35:30;7.70;97.70
10572;DHT22;5334;48.928;12.704;2023-03-01T08:40:21;7.60;97.80
10572;DHT22;5334;48.928;12.704;2023-03-01T08:42:47;7.60;99.20
10572;DHT22;5334;48.928;12.704;2023-03-01T08:45:13;7.50;98.80
10572;DHT22;5334;48.928;12.704;2023-03-01T08:47:43;7.50;97.30
10572;DHT22;5334;48.928;12.704;2023-03-01T08:50:10;7.80;96.50
10572;DHT22;5334;48.928;12.704;2023-03-01T08:55:02;8.40;98.00
10572;DHT22;5334;48.928;12.704;2023-03-01T08:57:28;8.70;96.70
10572;DHT22;5334;48.928;12.704;2023-03-01T08:59:53;8.70;95.60
10572;DHT22;5334;48.928;12.704;2023-03-01T09:02:22;8.60;96.50
10572;DHT22;5334;48.928;12.704;2023-03-01T09:04:47;8.70;96.40
10572;DHT22;5334;48.928;12.704;2023-03-01T09:09:39;9.10;95.90
10572;DHT22;5334;48.928;12.704;2023-03-01T09:14:31;9.10;96.00
10572;DHT22;5334;48.928;12.704;2023-03-01T09:16:57;9.50;95.20
10572;DHT22;5334;48.928;12.704;2023-03-01T09:19:23;9.60;95.90
10572;DHT22;5334;48.928;12.704;2023-03-01T09:24:20;9.80;94.90
10572;DHT22;5334;48.928;12.704;2023-03-01T09:26:47;9.70;93.90
10572;DHT22;5334;48.928;12.704;2023-03-01T09:29:12;9.90;92.80
10572;DHT22;5334;48.928;12.704;2023-03-01T09:34:05;9.90;92.60
10572;DHT22;5334;48.928;12.704;2023-03-01T09:36:38;10.00;93.80
10572;DHT22;5334;48.928;12.704;2023-03-01T09:39:04;10.00;93.50
10572;DHT22;5334;48.928;12.704;2023-03-01T09:44:03;10.00;92.10
10572;DHT22;5334;48.928;12.704;2023-03-01T09:46:40;10.20;93.40
10572;DHT22;5334;48.928;12.704;2023-03-01T09:49:21;10.50;92.50
10572;DHT22;5334;48.928;12.704;2023-03-01T09:51:55;10.30;90.50
10572;DHT22;5334;48.928;12.704;2023-03-01T09:54:22;10.50;91.20
10572;DHT22;5334;48.928;12.704;2023-03-01T09:57:11;10.50;91.00
10572;DHT22;5334;48.928;12.704;2023-03-01T09:59:50;10.70;91.20
10572;DHT22;5334;48.928;12.704;2023-03-01T10:02:48;10.60;90.90
10572;DHT22;5334;48.928;12.704;2023-03-01T10:10:36;10.80;91.20
10572;DHT22;5334;48.928;12.704;2023-03-01T10:13:13;11.20;90.00
10572;DHT22;5334;48.928;12.704;2023-03-01T10:15:48;11.40;90.70
10572;DHT22;5334;48.928;12.704;2023-03-01T10:18:21;11.50;89.40
10572;DHT22;5334;48.928;12.704;2023-03-01T10:23:44;11.50;91.10
10572;DHT22;5334;48.928;12.704;2023-03-01T10:29:03;11.40;88.40
10572;DHT22;5334;48.928;12.704;2023-03-01T10:31:50;11.10;88.00
10572;DHT22;5334;48.928;12.704;2023-03-01T10:34:31;10.80;86.50
10572;DHT22;5334;48.928;12.704;2023-03-01T10:37:18;10.80;89.50
10572;DHT22;5334;48.928;12.704;2023-03-01T10:40:09;10.90;88.30
10572;DHT22;5334;48.928;12.704;2023-03-01T10:42:39;11.00;89.70
10572;DHT22;5334;48.928;12.704;2023-03-01T10:48:15;11.40;89.70
10572;DHT22;5334;48.928;12.704;2023-03-01T10:50:48;11.60;90.40
10572;DHT22;5334;48.928;12.704;2023-03-01T10:56:05;11.80;86.70
10572;DHT22;5334;48.928;12.704;2023-03-01T10:58:33;11.90;86.70
10572;DHT22;5334;48.928;12.704;2023-03-01T11:01:03;11.80;87.70
10572;DHT22;5334;48.928;12.704;2023-03-01T11:03:34;11.70;87.60
10572;DHT22;5334;48.928;12.704;2023-03-01T11:13:56;13.20;87.40
10572;DHT22;5334;48.928;12.704;2023-03-01T11:16:40;13.30;86.80
10572;DHT22;5334;48.928;12.704;2023-03-01T11:24:46;13.60;83.80
10572;DHT22;5334;48.928;12.704;2023-03-01T11:27:24;14.00;82.90
10572;DHT22;5334;48.928;12.704;2023-03-01T11:30:05;13.90;81.70
10572;DHT22;5334;48.928;12.704;2023-03-01T11:32:47;13.90;84.30
10572;DHT22;5334;48.928;12.704;2023-03-01T11:35:21;13.90;84.10
10572;DHT22;5334;48.928;12.704;2023-03-01T11:40:39;14.50;84.90
10572;DHT22;5334;48.928;12.704;2023-03-01T11:43:26;14.70;83.40
10572;DHT22;5334;48.928;12.704;2023-03-01T11:51:46;14.60;81.50
10572;DHT22;5334;48.928;12.704;2023-03-01T12:08:20;14.90;75.60
10572;DHT22;5334;48.928;12.704;2023-03-01T12:25:19;16.00;79.90
10572;DHT22;5334;48.928;12.704;2023-03-01T12:27:51;16.10;79.20
10572;DHT22;5334;48.928;12.704;2023-03-01T12:33:26;16.20;79.20
10572;DHT22;5334;48.928;12.704;2023-03-01T12:41:38;16.50;76.50
10572;DHT22;5334;48.928;12.704;2023-03-01T12:49:42;17.30;76.50
10572;DHT22;5334;48.928;12.704;2023-03-01T12:54:48;17.50;75.60
10572;DHT22;5334;48.928;12.704;2023-03-01T12:57:16;17.60;74.80
10572;DHT22;5334;48.928;12.704;2023-03-01T13:05:19;17.80;73.10
10572;DHT22;5334;48.928;12.704;2023-03-01T13:10:52;17.70;73.30
10572;DHT22;5334;48.928;12.704;2023-03-01T13:13:27;17.90;74.80
10572;DHT22;5334;48.928;12.704;2023-03-01T13:15:54;18.00;71.00
10572;DHT22;5334;48.928;12.704;2023-03-01T13:20:53;18.40;71.10
10572;DHT22;5334;48.928;12.704;2023-03-01T13:26:16;18.60;69.60
10572;DHT22;5334;48.928;12.704;2023-03-01T13:33:57;18.60;70.00
10572;DHT22;5334;48.928;12.704;2023-03-01T13:38:59;18.40;69.60
10572;DHT22;5334;48.928;12.704;2023-03-01T13:46:45;18.70;68.80
10572;DHT22;5334;48.928;12.704;2023-03-01T13:49:20;18.80;68.90
10572;DHT22;5334;48.928;12.704;2023-03-01T13:51:47;18.60;68.60
10572;DHT22;5334;48.928;12.704;2023-03-01T13:54:15;18.40;69.70
10572;DHT22;5334;48.928;12.704;2023-03-01T13:56:42;18.40;70.40
10572;DHT22;5334;48.928;12.704;2023-03-01T13:59:22;18.30;70.00
10572;DHT22;5334;48.928;12.704;2023-03-01T14:01:57;18.30;69.80
10572;DHT22;5334;48.928;12.704;2023-03-01T14:04:29;18.50;69.20
10572;DHT22;5334;48.928;12.704;2023-03-01T14:07:29;18.50;68.70
10572;DHT22;5334;48.928;12.704;2023-03-01T14:10:00;18.50;69.20
10572;DHT22;5334;48.928;12.704;2023-03-01T14:17:43;18.50;69.20
10572;DHT22;5334;48.928;12.704;2023-03-01T14:20:22;18.40;70.20
10572;DHT22;5334;48.928;12.704;2023-03-01T14:22:49;18.30;69.90
10572;DHT22;5334;48.928;12.704;2023-03-01T14:25:28;18.40;71.00
10572;DHT22;5334;48.928;12.704;2023-03-01T14:28:15;18.50;69.00
10572;DHT22;5334;48.928;12.704;2023-03-01T14:30:44;18.60;69.40
10572;DHT22;5334;48.928;12.704;2023-03-01T14:33:28;18.60;69.20
10572;DHT22;5334;48.928;12.704;2023-03-01T14:36:00;18.70;67.30
10572;DHT22;5334;48.928;12.704;2023-03-01T14:38:35;18.80;68.00
10572;DHT22;5334;48.928;12.704;2023-03-01T14:41:16;18.80;66.90
10572;DHT22;5334;48.928;12.704;2023-03-01T14:43:45;18.60;67.60
10572;DHT22;5334;48.928;12.704;2023-03-01T14:48:54;18.40;68.10
10572;DHT22;5334;48.928;12.704;2023-03-01T14:51:21;18.20;69.30
10572;DHT22;5334;48.928;12.704;2023-03-01T14:53:47;17.90;68.60
10572;DHT22;5334;48.928;12.704;2023-03-01T14:56:14;17.90;69.20
10572;DHT22;5334;48.928;12.704;2023-03-01T14:58:43;17.80;69.80
10572;DHT22;5334;48.928;12.704;2023-03-01T15:01:13;17.80;70.50
10572;DHT22;5334;48.928;12.704;2023-03-01T15:03:58;17.70;69.70
10572;DHT22;5334;48.928;12.704;2023-03-01T15:06:24;17.50;71.10
10572;DHT22;5334;48.928;12.704;2023-03-01T15:08:52;17.50;71.80
10572;DHT22;5334;48.928;12.704;2023-03-01T15:11:32;17.50;71.30
10572;DHT22;5334;48.928;12.704;2023-03-01T15:13:58;17.40;71.30
10572;DHT22;5334;48.928;12.704;2023-03-01T15:16:27;17.30;71.40
10572;DHT22;5334;48.928;12.704;2023-03-01T15:18:56;17.20;71.10
10572;DHT22;5334;48.928;12.704;2023-03-01T15:21:29;17.10;72.10
10572;DHT22;5334;48.928;12.704;2023-03-01T15:27:12;16.70;73.80
10572;DHT22;5334;48.928;12.704;2023-03-01T15:29:34;16.60;74.30
10572;DHT22;5334;48.928;12.704;2023-03-01T15:32:34;16.60;73.70
10572;DHT22;5334;48.928;12.704;2023-03-01T15:35:32;16.40;74.70
10572;DHT22;5334;48.928;12.704;2023-03-01T15:37:48;16.30;75.50
10572;DHT22;5334;48.928;12.704;2023-03-01T15:40:26;15.90;75.50
10572;DHT22;5334;48.928;12.704;2023-03-01T15:43:05;15.50;76.50
10572;DHT22;5334;48.928;12.704;2023-03-01T15:45:33;15.10;78.10
10572;DHT22;5334;48.928;12.704;2023-03-01T15:48:13;14.90;78.10
10572;DHT22;5334;48.928;12.704;2023-03-01T15:50:40;14.40;78.70
10572;DHT22;5334;48.928;12.704;2023-03-01T15:53:12;13.80;80.70
10572;DHT22;5334;48.928;12.704;2023-03-01T15:55:39;13.40;82.00
10572;DHT22;5334;48.928;12.704;2023-03-01T15:58:27;12.90;81.70
10572;DHT22;5334;48.928;12.704;2023-03-01T16:00:53;12.50;83.80
10572;DHT22;5334;48.928;12.704;2023-03-01T16:03:22;12.20;85.10
10572;DHT22;5334;48.928;12.704;2023-03-01T16:05:49;12.00;84.90
10572;DHT22;5334;48.928;12.704;2023-03-01T16:08:15;11.80;86.10
10572;DHT22;5334;48.928;12.704;2023-03-01T16:10:42;11.70;87.10
10572;DHT22;5334;48.928;12.704;2023-03-01T16:13:13;11.50;87.10
10572;DHT22;5334;48.928;12.704;2023-03-01T16:15:39;11.20;87.70
10572;DHT22;5334;48.928;12.704;2023-03-01T16:18:05;11.00;88.70
10572;DHT22;5334;48.928;12.704;2023-03-01T16:20:33;10.80;90.00
10572;DHT22;5334;48.928;12.704;2023-03-01T16:23:01;10.60;90.10
10572;DHT22;5334;48.928;12.704;2023-03-01T16:25:27;10.50;90.30
10572;DHT22;5334;48.928;12.704;2023-03-01T16:27:53;10.20;90.80
10572;DHT22;5334;48.928;12.704;2023-03-01T16:30:22;10.00;91.00
10572;DHT22;5334;48.928;12.704;2023-03-01T16:32:48;9.90;91.40
10572;DHT22;5334;48.928;12.704;2023-03-01T16:35:16;9.80;91.80
10572;DHT22;5334;48.928;12.704;2023-03-01T16:37:43;9.70;92.20
10572;DHT22;5334;48.928;12.704;2023-03-01T16:40:17;9.50;92.30
10572;DHT22;5334;48.928;12.704;2023-03-01T16:42:43;9.30;92.90
10572;DHT22;5334;48.928;12.704;2023-03-01T16:45:09;9.20;93.10
10572;DHT22;5334;48.928;12.704;2023-03-01T16:47:35;9.10;93.30
10572;DHT22;5334;48.928;12.704;2023-03-01T16:50:01;9.00;93.50
10572;DHT22;5334;48.928;12.704;2023-03-01T16:52:27;8.80;94.10
10572;DHT22;5334;48.928;12.704;2023-03-01T16:54:53;8.80;94.40
10572;DHT22;5334;48.928;12.704;2023-03-01T16:57:18;8.60;94.80
10572;DHT22;5334;48.928;12.704;2023-03-01T16:59:44;8.60;95.10
10572;DHT22;5334;48.928;12.704;2023-03-01T17:02:11;8.50;95.70
10572;DHT22;5334;48.928;12.704;2023-03-01T17:04:39;8.40;95.60
10572;DHT22;5334;48.928;12.704;2023-03-01T17:07:05;8.30;95.60
10572;DHT22;5334;48.928;12.704;2023-03-01T17:09:34;8.20;96.10
10572;DHT22;5334;48.928;12.704;2023-03-01T17:12:00;8.10;96.30
10572;DHT22;5334;48.928;12.704;2023-03-01T17:14:25;8.00;96.30
10572;DHT22;5334;48.928;12.704;2023-03-01T17:16:51;7.90;96.30
10572;DHT22;5334;48.928;12.704;2023-03-01T17:19:18;7.90;96.40
10572;DHT22;5334;48.928;12.704;2023-03-01T17:21:44;7.90;96.20
10572;DHT22;5334;48.928;12.704;2023-03-01T17:24:10;7.90;96.20
10572;DHT22;5334;48.928;12.704;2023-03-01T17:26:36;7.90;96.40
10572;DHT22;5334;48.928;12.704;2023-03-01T17:29:03;7.80;96.50
10572;DHT22;5334;48.928;12.704;2023-03-01T17:31:30;7.80;96.80
10572;DHT22;5334;48.928;12.704;2023-03-01T17:33:56;7.60;97.30
10572;DHT22;5334;48.928;12.704;2023-03-01T17:36:22;7.50;97.40
10572;DHT22;5334;48.928;12.704;2023-03-01T17:38:48;7.50;97.60
10572;DHT22;5334;48.928;12.704;2023-03-01T17:41:14;7.40;98.30
10572;DHT22;5334;48.928;12.704;2023-03-01T17:43:43;7.30;98.60
10572;DHT22;5334;48.928;12.704;2023-03-01T17:46:09;7.20;98.50
10572;DHT22;5334;48.928;12.704;2023-03-01T17:48:36;7.20;98.30
10572;DHT22;5334;48.928;12.704;2023-03-01T17:51:09;7.20;99.00
10572;DHT22;5334;48.928;12.704;2023-03-01T17:53:36;7.10;99.20
10572;DHT22;5334;48.928;12.704;2023-03-01T17:56:04;7.00;99.30
10572;DHT22;5334;48.928;12.704;2023-03-01T17:58:31;6.90;99.30
10572;DHT22;5334;48.928;12.704;2023-03-01T18:01:07;6.80;99.90
10572;DHT22;5334;48.928;12.704;2023-03-01T18:03:32;6.80;99.90
10572;DHT22;5334;48.928;12.704;2023-03-01T18:05:58;6.70;99.90
10572;DHT22;5334;48.928;12.704;2023-03-01T18:08:24;6.70;99.90
10572;DHT22;5334;48.928;12.704;2023-03-01T18:10:57;6.70;99.90
10572;DHT22;5334;48.928;12.704;2023-03-01T18:13:23;6.60;99.90
10572;DHT22;5334;48.928;12.704;2023-03-01T18:15:48;6.50;99.90
10572;DHT22;5334;48.928;12.704;2023-03-01T18:18:14;6.50;99.90
10572;DHT22;5334;48.928;12.704;2023-03-01T18:20:39;6.50;99.90
10572;DHT22;5334;48.928;12.704;2023-03-01T18:23:05;6.50;99.90
10572;DHT22;5334;48.928;12.704;2023-03-01T18:25:31;6.50;99.90
10572;DHT22;5334;48.928;12.704;2023-03-01T18:30:23;6.40;99.90
10572;DHT22;5334;48.928;12.704;2023-03-01T18:32:48;6.30;99.90
10572;DHT22;5334;48.928;12.704;2023-03-01T18:35:21;6.20;99.90
10572;DHT22;5334;48.928;12.704;2023-03-01T18:37:47;6.20;99.90
10572;DHT22;5334;48.928;12.704;2023-03-01T18:40:14;6.10;99.90
10572;DHT22;5334;48.928;12.704;2023-03-01T18:42:40;6.10;99.90
10572;DHT22;5334;48.928;12.704;2023-03-01T18:45:06;6.10;99.90
10572;DHT22;5334;48.928;12.704;2023-03-01T18:47:32;6.20;99.90
10572;DHT22;5334;48.928;12.704;2023-03-01T18:49:58;6.10;99.90